sensor_id;sensor_type;location;lat;lon;timestamp;P1;durP1;ratioP1;P2;durP2;ratioP2
23163;SDS011;31429;42.674;23.350;2023-07-30T00:00:12;7.27;;;4.43;;
23163;SDS011;31429;42.674;23.350;2023-07-30T00:01:13;10.23;;;4.90;;
23163;SDS011;31429;42.674;23.350;2023-07-30T00:02:13;6.37;;;5.50;;
23163;SDS011;31429;42.674;23.350;2023-07-30T00:03:14;6.87;;;5.97;;
23163;SDS011;31429;42.674;23.350;2023-07-30T00:04:15;9.47;;;7.07;;
23163;SDS011;31429;42.674;23.350;2023-07-30T00:05:15;6.87;;;6.17;;
23163;SDS011;31429;42.674;23.350;2023-07-30T00:06:16;9.30;;;7.57;;
23163;SDS011;31429;42.674;23.350;2023-07-30T00:07:18;10.67;;;7.33;;
23163;SDS011;31429;42.674;23.350;2023-07-30T00:08:18;7.93;;;5.70;;
23163;SDS011;31429;42.674;23.350;2023-07-30T00:09:19;7.80;;;5.67;;
23163;SDS011;31429;42.674;23.350;2023-07-30T00:10:20;6.80;;;5.43;;
23163;SDS011;31429;42.674;23.350;2023-07-30T00:11:21;6.30;;;4.97;;
23163;SDS011;31429;42.674;23.350;2023-07-30T00:12:21;6.03;;;4.60;;
23163;SDS011;31429;42.674;23.350;2023-07-30T00:13:22;5.43;;;4.67;;
23163;SDS011;31429;42.674;23.350;2023-07-30T00:14:23;5.67;;;4.87;;
23163;SDS011;31429;42.674;23.350;2023-07-30T00:15:23;6.63;;;4.83;;
23163;SDS011;31429;42.674;23.350;2023-07-30T00:16:25;6.70;;;5.87;;
23163;SDS011;31429;42.674;23.350;2023-07-30T00:17:25;5.73;;;5.10;;
23163;SDS011;31429;42.674;23.350;2023-07-30T00:18:26;7.90;;;5.47;;
23163;SDS011;31429;42.674;23.350;2023-07-30T00:19:27;7.73;;;5.67;;
23163;SDS011;31429;42.674;23.350;2023-07-30T00:20:27;7.33;;;5.50;;
23163;SDS011;31429;42.674;23.350;2023-07-30T00:21:28;6.17;;;5.10;;
23163;SDS011;31429;42.674;23.350;2023-07-30T00:22:30;5.40;;;4.50;;
23163;SDS011;31429;42.674;23.350;2023-07-30T00:23:31;6.27;;;5.00;;
23163;SDS011;31429;42.674;23.350;2023-07-30T00:24:31;5.93;;;4.17;;
23163;SDS011;31429;42.674;23.350;2023-07-30T00:25:32;5.77;;;3.93;;
23163;SDS011;31429;42.674;23.350;2023-07-30T00:26:33;5.13;;;4.40;;
23163;SDS011;31429;42.674;23.350;2023-07-30T00:27:34;5.30;;;4.33;;
23163;SDS011;31429;42.674;23.350;2023-07-30T00:28:34;5.57;;;4.30;;
23163;SDS011;31429;42.674;23.350;2023-07-30T00:29:35;8.77;;;5.50;;
23163;SDS011;31429;42.674;23.350;2023-07-30T00:30:36;7.63;;;5.30;;
23163;SDS011;31429;42.674;23.350;2023-07-30T00:31:36;8.10;;;5.53;;
23163;SDS011;31429;42.674;23.350;2023-07-30T00:32:37;10.60;;;6.40;;
23163;SDS011;31429;42.674;23.350;2023-07-30T00:33:43;6.37;;;5.30;;
23163;SDS011;31429;42.674;23.350;2023-07-30T00:34:44;5.77;;;4.77;;
23163;SDS011;31429;42.674;23.350;2023-07-30T00:35:44;5.13;;;4.63;;
23163;SDS011;31429;42.674;23.350;2023-07-30T00:36:45;4.83;;;4.43;;
23163;SDS011;31429;42.674;23.350;2023-07-30T00:37:47;5.40;;;4.40;;
23163;SDS011;31429;42.674;23.350;2023-07-30T00:38:47;7.17;;;5.40;;
23163;SDS011;31429;42.674;23.350;2023-07-30T00:39:48;5.63;;;5.00;;
23163;SDS011;31429;42.674;23.350;2023-07-30T00:40:48;7.47;;;5.30;;
23163;SDS011;31429;42.674;23.350;2023-07-30T00:41:49;6.37;;;5.30;;
23163;SDS011;31429;42.674;23.350;2023-07-30T00:42:50;6.07;;;4.97;;
23163;SDS011;31429;42.674;23.350;2023-07-30T00:43:51;5.87;;;5.37;;
23163;SDS011;31429;42.674;23.350;2023-07-30T00:44:52;6.33;;;5.20;;
23163;SDS011;31429;42.674;23.350;2023-07-30T00:45:52;7.53;;;5.07;;
23163;SDS011;31429;42.674;23.350;2023-07-30T00:46:53;6.13;;;4.60;;
23163;SDS011;31429;42.674;23.350;2023-07-30T00:47:54;5.47;;;4.80;;
23163;SDS011;31429;42.674;23.350;2023-07-30T00:48:54;4.13;;;3.80;;
23163;SDS011;31429;42.674;23.350;2023-07-30T00:49:55;5.37;;;4.07;;
23163;SDS011;31429;42.674;23.350;2023-07-30T00:50:56;6.77;;;4.20;;
23163;SDS011;31429;42.674;23.350;2023-07-30T00:51:57;4.83;;;4.10;;
23163;SDS011;31429;42.674;23.350;2023-07-30T00:52:59;7.17;;;4.63;;
23163;SDS011;31429;42.674;23.350;2023-07-30T00:53:59;4.67;;;4.27;;
23163;SDS011;31429;42.674;23.350;2023-07-30T00:55:01;6.37;;;4.10;;
23163;SDS011;31429;42.674;23.350;2023-07-30T00:56:03;6.93;;;4.43;;
23163;SDS011;31429;42.674;23.350;2023-07-30T00:57:04;6.03;;;4.73;;
23163;SDS011;31429;42.674;23.350;2023-07-30T00:58:05;5.63;;;5.10;;
23163;SDS011;31429;42.674;23.350;2023-07-30T00:59:06;5.77;;;4.63;;
23163;SDS011;31429;42.674;23.350;2023-07-30T01:00:07;6.17;;;4.60;;
23163;SDS011;31429;42.674;23.350;2023-07-30T01:01:09;5.37;;;4.23;;
23163;SDS011;31429;42.674;23.350;2023-07-30T01:02:11;4.80;;;4.40;;
23163;SDS011;31429;42.674;23.350;2023-07-30T01:03:12;5.00;;;4.33;;
23163;SDS011;31429;42.674;23.350;2023-07-30T01:04:13;6.63;;;4.67;;
23163;SDS011;31429;42.674;23.350;2023-07-30T01:05:14;6.40;;;4.87;;
23163;SDS011;31429;42.674;23.350;2023-07-30T01:06:15;7.53;;;5.53;;
23163;SDS011;31429;42.674;23.350;2023-07-30T01:07:15;6.37;;;5.17;;
23163;SDS011;31429;42.674;23.350;2023-07-30T01:08:17;4.77;;;4.10;;
23163;SDS011;31429;42.674;23.350;2023-07-30T01:09:18;4.97;;;4.30;;
23163;SDS011;31429;42.674;23.350;2023-07-30T01:10:19;4.80;;;4.30;;
23163;SDS011;31429;42.674;23.350;2023-07-30T01:11:21;4.50;;;4.10;;
23163;SDS011;31429;42.674;23.350;2023-07-30T01:12:21;6.43;;;4.63;;
23163;SDS011;31429;42.674;23.350;2023-07-30T01:13:23;7.27;;;5.37;;
23163;SDS011;31429;42.674;23.350;2023-07-30T01:14:24;5.33;;;4.50;;
23163;SDS011;31429;42.674;23.350;2023-07-30T01:15:26;5.00;;;4.57;;
23163;SDS011;31429;42.674;23.350;2023-07-30T01:16:27;4.80;;;4.40;;
23163;SDS011;31429;42.674;23.350;2023-07-30T01:17:28;4.80;;;4.23;;
23163;SDS011;31429;42.674;23.350;2023-07-30T01:18:29;5.10;;;4.17;;
23163;SDS011;31429;42.674;23.350;2023-07-30T01:19:29;7.93;;;4.70;;
23163;SDS011;31429;42.674;23.350;2023-07-30T01:20:30;5.60;;;4.40;;
23163;SDS011;31429;42.674;23.350;2023-07-30T01:21:33;5.63;;;4.20;;
23163;SDS011;31429;42.674;23.350;2023-07-30T01:22:34;8.10;;;5.10;;
23163;SDS011;31429;42.674;23.350;2023-07-30T01:23:35;6.13;;;4.93;;
23163;SDS011;31429;42.674;23.350;2023-07-30T01:24:35;4.77;;;4.33;;
23163;SDS011;31429;42.674;23.350;2023-07-30T01:25:36;4.93;;;4.53;;
23163;SDS011;31429;42.674;23.350;2023-07-30T01:26:38;4.77;;;4.30;;
23163;SDS011;31429;42.674;23.350;2023-07-30T01:27:44;6.37;;;4.43;;
23163;SDS011;31429;42.674;23.350;2023-07-30T01:28:49;5.67;;;5.07;;
23163;SDS011;31429;42.674;23.350;2023-07-30T01:29:55;6.13;;;5.07;;
23163;SDS011;31429;42.674;23.350;2023-07-30T01:30:59;5.20;;;4.77;;
23163;SDS011;31429;42.674;23.350;2023-07-30T01:32:04;7.93;;;4.40;;
23163;SDS011;31429;42.674;23.350;2023-07-30T01:33:07;5.27;;;4.70;;
23163;SDS011;31429;42.674;23.350;2023-07-30T01:34:10;4.90;;;4.50;;
23163;SDS011;31429;42.674;23.350;2023-07-30T01:35:12;4.80;;;4.40;;
23163;SDS011;31429;42.674;23.350;2023-07-30T01:36:15;7.27;;;4.50;;
23163;SDS011;31429;42.674;23.350;2023-07-30T01:37:18;5.97;;;4.60;;
23163;SDS011;31429;42.674;23.350;2023-07-30T01:38:19;6.10;;;4.37;;
23163;SDS011;31429;42.674;23.350;2023-07-30T01:39:21;6.07;;;4.73;;
23163;SDS011;31429;42.674;23.350;2023-07-30T01:40:22;5.70;;;4.03;;
23163;SDS011;31429;42.674;23.350;2023-07-30T01:41:23;5.37;;;4.87;;
23163;SDS011;31429;42.674;23.350;2023-07-30T01:42:27;4.80;;;4.40;;
23163;SDS011;31429;42.674;23.350;2023-07-30T01:43:28;4.97;;;4.47;;
23163;SDS011;31429;42.674;23.350;2023-07-30T01:44:29;5.73;;;4.60;;
23163;SDS011;31429;42.674;23.350;2023-07-30T01:45:30;6.03;;;4.70;;
23163;SDS011;31429;42.674;23.350;2023-07-30T01:46:30;4.47;;;4.07;;
23163;SDS011;31429;42.674;23.350;2023-07-30T01:47:31;5.13;;;4.63;;
23163;SDS011;31429;42.674;23.350;2023-07-30T01:48:32;6.20;;;4.00;;
23163;SDS011;31429;42.674;23.350;2023-07-30T01:49:32;5.07;;;4.67;;
23163;SDS011;31429;42.674;23.350;2023-07-30T01:50:33;6.47;;;4.07;;
23163;SDS011;31429;42.674;23.350;2023-07-30T01:51:34;5.53;;;4.37;;
23163;SDS011;31429;42.674;23.350;2023-07-30T01:52:36;4.80;;;4.20;;
23163;SDS011;31429;42.674;23.350;2023-07-30T01:53:36;4.40;;;4.00;;
23163;SDS011;31429;42.674;23.350;2023-07-30T01:54:37;4.70;;;4.30;;
23163;SDS011;31429;42.674;23.350;2023-07-30T01:55:38;4.77;;;4.30;;
23163;SDS011;31429;42.674;23.350;2023-07-30T01:56:43;4.50;;;4.10;;
23163;SDS011;31429;42.674;23.350;2023-07-30T01:57:44;5.47;;;4.77;;
23163;SDS011;31429;42.674;23.350;2023-07-30T01:58:44;5.53;;;4.43;;
23163;SDS011;31429;42.674;23.350;2023-07-30T01:59:45;5.63;;;4.33;;
23163;SDS011;31429;42.674;23.350;2023-07-30T02:00:46;4.60;;;4.23;;
23163;SDS011;31429;42.674;23.350;2023-07-30T02:01:47;4.60;;;4.20;;
23163;SDS011;31429;42.674;23.350;2023-07-30T02:02:47;5.10;;;4.70;;
23163;SDS011;31429;42.674;23.350;2023-07-30T02:03:48;6.43;;;4.37;;
23163;SDS011;31429;42.674;23.350;2023-07-30T02:04:49;4.67;;;4.30;;
23163;SDS011;31429;42.674;23.350;2023-07-30T02:05:49;5.53;;;5.00;;
23163;SDS011;31429;42.674;23.350;2023-07-30T02:06:50;4.23;;;3.83;;
23163;SDS011;31429;42.674;23.350;2023-07-30T02:07:52;4.83;;;4.33;;
23163;SDS011;31429;42.674;23.350;2023-07-30T02:08:53;4.67;;;4.20;;
23163;SDS011;31429;42.674;23.350;2023-07-30T02:09:53;7.00;;;4.40;;
23163;SDS011;31429;42.674;23.350;2023-07-30T02:10:54;4.57;;;4.17;;
23163;SDS011;31429;42.674;23.350;2023-07-30T02:11:56;4.80;;;4.40;;
23163;SDS011;31429;42.674;23.350;2023-07-30T02:12:56;4.37;;;3.90;;
23163;SDS011;31429;42.674;23.350;2023-07-30T02:13:57;6.63;;;4.17;;
23163;SDS011;31429;42.674;23.350;2023-07-30T02:14:58;4.27;;;3.87;;
23163;SDS011;31429;42.674;23.350;2023-07-30T02:15:58;5.47;;;4.47;;
23163;SDS011;31429;42.674;23.350;2023-07-30T02:16:59;4.70;;;4.27;;
23163;SDS011;31429;42.674;23.350;2023-07-30T02:18:00;5.70;;;4.33;;
23163;SDS011;31429;42.674;23.350;2023-07-30T02:19:00;14.30;;;4.60;;
23163;SDS011;31429;42.674;23.350;2023-07-30T02:20:01;5.73;;;4.77;;
23163;SDS011;31429;42.674;23.350;2023-07-30T02:21:02;6.33;;;3.83;;
23163;SDS011;31429;42.674;23.350;2023-07-30T02:22:03;6.80;;;4.40;;
23163;SDS011;31429;42.674;23.350;2023-07-30T02:23:06;4.57;;;4.17;;
23163;SDS011;31429;42.674;23.350;2023-07-30T02:24:06;5.63;;;4.10;;
23163;SDS011;31429;42.674;23.350;2023-07-30T02:25:10;4.63;;;4.07;;
23163;SDS011;31429;42.674;23.350;2023-07-30T02:26:10;6.17;;;4.30;;
23163;SDS011;31429;42.674;23.350;2023-07-30T02:27:11;4.63;;;3.70;;
23163;SDS011;31429;42.674;23.350;2023-07-30T02:28:12;4.33;;;3.93;;
23163;SDS011;31429;42.674;23.350;2023-07-30T02:29:12;4.67;;;4.23;;
23163;SDS011;31429;42.674;23.350;2023-07-30T02:30:13;6.43;;;4.33;;
23163;SDS011;31429;42.674;23.350;2023-07-30T02:31:14;4.17;;;3.77;;
23163;SDS011;31429;42.674;23.350;2023-07-30T02:32:15;4.30;;;3.90;;
23163;SDS011;31429;42.674;23.350;2023-07-30T02:33:16;6.30;;;4.33;;
23163;SDS011;31429;42.674;23.350;2023-07-30T02:34:17;5.60;;;3.73;;
23163;SDS011;31429;42.674;23.350;2023-07-30T02:35:17;4.30;;;3.90;;
23163;SDS011;31429;42.674;23.350;2023-07-30T02:36:18;4.33;;;3.83;;
23163;SDS011;31429;42.674;23.350;2023-07-30T02:37:19;7.40;;;4.33;;
23163;SDS011;31429;42.674;23.350;2023-07-30T02:38:21;4.80;;;4.17;;
23163;SDS011;31429;42.674;23.350;2023-07-30T02:39:21;4.67;;;4.27;;
23163;SDS011;31429;42.674;23.350;2023-07-30T02:40:22;5.37;;;4.27;;
23163;SDS011;31429;42.674;23.350;2023-07-30T02:41:23;5.87;;;4.97;;
23163;SDS011;31429;42.674;23.350;2023-07-30T02:42:24;5.20;;;4.70;;
23163;SDS011;31429;42.674;23.350;2023-07-30T02:43:25;4.73;;;4.33;;
23163;SDS011;31429;42.674;23.350;2023-07-30T02:44:25;5.60;;;4.13;;
23163;SDS011;31429;42.674;23.350;2023-07-30T02:45:26;4.67;;;4.23;;
23163;SDS011;31429;42.674;23.350;2023-07-30T02:46:27;6.50;;;4.03;;
23163;SDS011;31429;42.674;23.350;2023-07-30T02:47:27;5.13;;;4.60;;
23163;SDS011;31429;42.674;23.350;2023-07-30T02:48:28;5.80;;;4.30;;
23163;SDS011;31429;42.674;23.350;2023-07-30T02:49:28;5.07;;;4.40;;
23163;SDS011;31429;42.674;23.350;2023-07-30T02:50:29;4.67;;;4.27;;
23163;SDS011;31429;42.674;23.350;2023-07-30T02:51:30;4.93;;;4.37;;
23163;SDS011;31429;42.674;23.350;2023-07-30T02:53:42;4.17;;;3.87;;
23163;SDS011;31429;42.674;23.350;2023-07-30T02:54:44;7.20;;;4.37;;
23163;SDS011;31429;42.674;23.350;2023-07-30T02:55:45;5.13;;;4.60;;
23163;SDS011;31429;42.674;23.350;2023-07-30T02:56:46;5.17;;;4.30;;
23163;SDS011;31429;42.674;23.350;2023-07-30T02:57:46;5.10;;;4.60;;
23163;SDS011;31429;42.674;23.350;2023-07-30T02:58:47;5.10;;;4.60;;
23163;SDS011;31429;42.674;23.350;2023-07-30T02:59:48;6.73;;;4.97;;
23163;SDS011;31429;42.674;23.350;2023-07-30T03:00:49;6.47;;;4.63;;
23163;SDS011;31429;42.674;23.350;2023-07-30T03:01:50;5.17;;;4.67;;
23163;SDS011;31429;42.674;23.350;2023-07-30T03:02:51;5.07;;;4.60;;
23163;SDS011;31429;42.674;23.350;2023-07-30T03:03:52;4.73;;;4.33;;
23163;SDS011;31429;42.674;23.350;2023-07-30T03:04:53;7.00;;;6.30;;
23163;SDS011;31429;42.674;23.350;2023-07-30T03:05:54;8.53;;;6.67;;
23163;SDS011;31429;42.674;23.350;2023-07-30T03:06:55;19.17;;;16.03;;
23163;SDS011;31429;42.674;23.350;2023-07-30T03:07:55;41.40;;;31.40;;
23163;SDS011;31429;42.674;23.350;2023-07-30T03:08:58;30.40;;;24.43;;
23163;SDS011;31429;42.674;23.350;2023-07-30T03:09:58;12.53;;;11.10;;
23163;SDS011;31429;42.674;23.350;2023-07-30T03:11:00;15.07;;;12.77;;
23163;SDS011;31429;42.674;23.350;2023-07-30T03:12:00;10.13;;;7.50;;
23163;SDS011;31429;42.674;23.350;2023-07-30T03:13:01;5.40;;;4.87;;
23163;SDS011;31429;42.674;23.350;2023-07-30T03:14:02;19.00;;;15.90;;
23163;SDS011;31429;42.674;23.350;2023-07-30T03:15:03;46.40;;;40.03;;
23163;SDS011;31429;42.674;23.350;2023-07-30T03:16:05;57.93;;;49.90;;
23163;SDS011;31429;42.674;23.350;2023-07-30T03:17:06;35.93;;;29.30;;
23163;SDS011;31429;42.674;23.350;2023-07-30T03:18:07;75.47;;;62.27;;
23163;SDS011;31429;42.674;23.350;2023-07-30T03:19:07;121.03;;;101.77;;
23163;SDS011;31429;42.674;23.350;2023-07-30T03:20:08;113.57;;;92.17;;
23163;SDS011;31429;42.674;23.350;2023-07-30T03:21:10;90.27;;;73.77;;
23163;SDS011;31429;42.674;23.350;2023-07-30T03:22:10;74.63;;;61.10;;
23163;SDS011;31429;42.674;23.350;2023-07-30T03:23:11;75.90;;;63.97;;
23163;SDS011;31429;42.674;23.350;2023-07-30T03:24:16;61.07;;;50.23;;
23163;SDS011;31429;42.674;23.350;2023-07-30T03:25:17;44.07;;;37.20;;
23163;SDS011;31429;42.674;23.350;2023-07-30T03:26:18;44.40;;;38.20;;
23163;SDS011;31429;42.674;23.350;2023-07-30T03:27:18;19.80;;;16.30;;
23163;SDS011;31429;42.674;23.350;2023-07-30T03:28:22;49.07;;;39.83;;
23163;SDS011;31429;42.674;23.350;2023-07-30T03:29:23;24.87;;;21.07;;
23163;SDS011;31429;42.674;23.350;2023-07-30T03:30:24;24.60;;;18.60;;
23163;SDS011;31429;42.674;23.350;2023-07-30T03:31:25;33.63;;;29.37;;
23163;SDS011;31429;42.674;23.350;2023-07-30T03:32:28;29.40;;;22.87;;
23163;SDS011;31429;42.674;23.350;2023-07-30T03:33:29;29.67;;;24.67;;
23163;SDS011;31429;42.674;23.350;2023-07-30T03:34:30;25.80;;;21.53;;
23163;SDS011;31429;42.674;23.350;2023-07-30T03:35:33;17.77;;;15.00;;
23163;SDS011;31429;42.674;23.350;2023-07-30T03:36:33;28.50;;;23.70;;
23163;SDS011;31429;42.674;23.350;2023-07-30T03:37:34;26.03;;;17.77;;
23163;SDS011;31429;42.674;23.350;2023-07-30T03:38:34;23.80;;;17.90;;
23163;SDS011;31429;42.674;23.350;2023-07-30T03:39:36;11.83;;;10.63;;
23163;SDS011;31429;42.674;23.350;2023-07-30T03:40:37;20.03;;;14.83;;
23163;SDS011;31429;42.674;23.350;2023-07-30T03:41:38;18.50;;;15.43;;
23163;SDS011;31429;42.674;23.350;2023-07-30T03:42:38;14.80;;;13.27;;
23163;SDS011;31429;42.674;23.350;2023-07-30T03:43:39;11.47;;;9.90;;
23163;SDS011;31429;42.674;23.350;2023-07-30T03:44:40;10.80;;;6.60;;
23163;SDS011;31429;42.674;23.350;2023-07-30T03:45:40;11.10;;;9.97;;
23163;SDS011;31429;42.674;23.350;2023-07-30T03:46:42;11.90;;;9.27;;
23163;SDS011;31429;42.674;23.350;2023-07-30T03:47:43;16.43;;;11.03;;
23163;SDS011;31429;42.674;23.350;2023-07-30T03:48:44;11.73;;;9.53;;
23163;SDS011;31429;42.674;23.350;2023-07-30T03:49:44;9.17;;;7.83;;
23163;SDS011;31429;42.674;23.350;2023-07-30T03:50:45;9.60;;;8.73;;
23163;SDS011;31429;42.674;23.350;2023-07-30T03:51:46;14.90;;;11.40;;
23163;SDS011;31429;42.674;23.350;2023-07-30T03:52:47;9.63;;;8.63;;
23163;SDS011;31429;42.674;23.350;2023-07-30T03:53:48;10.20;;;9.07;;
23163;SDS011;31429;42.674;23.350;2023-07-30T03:54:50;8.37;;;7.47;;
23163;SDS011;31429;42.674;23.350;2023-07-30T03:55:50;8.50;;;7.13;;
23163;SDS011;31429;42.674;23.350;2023-07-30T03:56:51;6.57;;;5.97;;
23163;SDS011;31429;42.674;23.350;2023-07-30T03:57:51;7.70;;;6.90;;
23163;SDS011;31429;42.674;23.350;2023-07-30T03:58:52;7.07;;;6.27;;
23163;SDS011;31429;42.674;23.350;2023-07-30T03:59:53;7.87;;;6.70;;
23163;SDS011;31429;42.674;23.350;2023-07-30T04:00:53;6.63;;;5.90;;
23163;SDS011;31429;42.674;23.350;2023-07-30T04:01:54;8.03;;;7.23;;
23163;SDS011;31429;42.674;23.350;2023-07-30T04:02:55;7.57;;;6.80;;
23163;SDS011;31429;42.674;23.350;2023-07-30T04:03:56;9.73;;;8.63;;
23163;SDS011;31429;42.674;23.350;2023-07-30T04:04:56;9.87;;;8.97;;
23163;SDS011;31429;42.674;23.350;2023-07-30T04:05:57;9.10;;;7.90;;
23163;SDS011;31429;42.674;23.350;2023-07-30T04:06:57;7.93;;;7.13;;
23163;SDS011;31429;42.674;23.350;2023-07-30T04:07:58;8.53;;;7.67;;
23163;SDS011;31429;42.674;23.350;2023-07-30T04:08:59;10.30;;;9.30;;
23163;SDS011;31429;42.674;23.350;2023-07-30T04:10:01;12.63;;;7.03;;
23163;SDS011;31429;42.674;23.350;2023-07-30T04:11:01;15.57;;;9.37;;
23163;SDS011;31429;42.674;23.350;2023-07-30T04:12:02;9.57;;;8.47;;
23163;SDS011;31429;42.674;23.350;2023-07-30T04:13:03;13.30;;;8.23;;
23163;SDS011;31429;42.674;23.350;2023-07-30T04:14:04;8.60;;;7.77;;
23163;SDS011;31429;42.674;23.350;2023-07-30T04:15:08;12.77;;;9.73;;
23163;SDS011;31429;42.674;23.350;2023-07-30T04:16:09;9.87;;;7.73;;
23163;SDS011;31429;42.674;23.350;2023-07-30T04:17:10;16.07;;;8.13;;
23163;SDS011;31429;42.674;23.350;2023-07-30T04:18:10;11.70;;;8.43;;
23163;SDS011;31429;42.674;23.350;2023-07-30T04:19:11;10.13;;;8.23;;
23163;SDS011;31429;42.674;23.350;2023-07-30T04:20:11;8.10;;;7.33;;
23163;SDS011;31429;42.674;23.350;2023-07-30T04:21:12;8.80;;;7.97;;
23163;SDS011;31429;42.674;23.350;2023-07-30T04:22:13;8.90;;;7.80;;
23163;SDS011;31429;42.674;23.350;2023-07-30T04:23:15;9.53;;;7.23;;
23163;SDS011;31429;42.674;23.350;2023-07-30T04:24:15;5.97;;;5.37;;
23163;SDS011;31429;42.674;23.350;2023-07-30T04:25:17;7.40;;;6.10;;
23163;SDS011;31429;42.674;23.350;2023-07-30T04:26:18;7.73;;;5.70;;
23163;SDS011;31429;42.674;23.350;2023-07-30T04:27:19;6.80;;;6.13;;
23163;SDS011;31429;42.674;23.350;2023-07-30T04:28:19;8.13;;;6.70;;
23163;SDS011;31429;42.674;23.350;2023-07-30T04:29:20;9.10;;;6.60;;
23163;SDS011;31429;42.674;23.350;2023-07-30T04:30:21;6.43;;;5.83;;
23163;SDS011;31429;42.674;23.350;2023-07-30T04:31:21;6.90;;;5.57;;
23163;SDS011;31429;42.674;23.350;2023-07-30T04:32:22;10.40;;;7.43;;
23163;SDS011;31429;42.674;23.350;2023-07-30T04:33:22;7.87;;;7.07;;
23163;SDS011;31429;42.674;23.350;2023-07-30T04:34:23;8.93;;;7.03;;
23163;SDS011;31429;42.674;23.350;2023-07-30T04:35:24;13.23;;;7.53;;
23163;SDS011;31429;42.674;23.350;2023-07-30T04:36:24;7.80;;;6.10;;
23163;SDS011;31429;42.674;23.350;2023-07-30T04:37:25;8.83;;;6.83;;
23163;SDS011;31429;42.674;23.350;2023-07-30T04:38:26;8.93;;;6.90;;
23163;SDS011;31429;42.674;23.350;2023-07-30T04:39:26;6.60;;;5.90;;
23163;SDS011;31429;42.674;23.350;2023-07-30T04:40:28;7.57;;;5.93;;
23163;SDS011;31429;42.674;23.350;2023-07-30T04:41:29;7.07;;;5.70;;
23163;SDS011;31429;42.674;23.350;2023-07-30T04:42:30;6.70;;;6.03;;
23163;SDS011;31429;42.674;23.350;2023-07-30T04:43:30;6.60;;;5.80;;
23163;SDS011;31429;42.674;23.350;2023-07-30T04:44:31;6.57;;;5.83;;
23163;SDS011;31429;42.674;23.350;2023-07-30T04:45:32;7.13;;;6.30;;
23163;SDS011;31429;42.674;23.350;2023-07-30T04:46:33;9.23;;;6.00;;
23163;SDS011;31429;42.674;23.350;2023-07-30T04:47:33;11.33;;;5.53;;
23163;SDS011;31429;42.674;23.350;2023-07-30T04:48:34;7.87;;;5.80;;
23163;SDS011;31429;42.674;23.350;2023-07-30T04:49:34;10.07;;;5.50;;
23163;SDS011;31429;42.674;23.350;2023-07-30T04:50:37;8.80;;;6.37;;
23163;SDS011;31429;42.674;23.350;2023-07-30T04:51:39;6.23;;;5.63;;
23163;SDS011;31429;42.674;23.350;2023-07-30T04:52:40;5.60;;;5.10;;
23163;SDS011;31429;42.674;23.350;2023-07-30T04:53:40;7.03;;;5.33;;
23163;SDS011;31429;42.674;23.350;2023-07-30T04:54:41;9.20;;;5.30;;
23163;SDS011;31429;42.674;23.350;2023-07-30T04:55:43;6.20;;;4.80;;
23163;SDS011;31429;42.674;23.350;2023-07-30T04:56:44;6.27;;;5.27;;
23163;SDS011;31429;42.674;23.350;2023-07-30T04:57:45;6.80;;;5.07;;
23163;SDS011;31429;42.674;23.350;2023-07-30T04:58:45;8.33;;;5.57;;
23163;SDS011;31429;42.674;23.350;2023-07-30T04:59:46;8.53;;;6.17;;
23163;SDS011;31429;42.674;23.350;2023-07-30T05:00:47;7.43;;;4.70;;
23163;SDS011;31429;42.674;23.350;2023-07-30T05:01:47;5.10;;;4.57;;
23163;SDS011;31429;42.674;23.350;2023-07-30T05:02:48;8.17;;;4.77;;
23163;SDS011;31429;42.674;23.350;2023-07-30T05:03:48;5.70;;;4.77;;
23163;SDS011;31429;42.674;23.350;2023-07-30T05:04:49;5.13;;;4.63;;
23163;SDS011;31429;42.674;23.350;2023-07-30T05:05:50;5.10;;;4.60;;
23163;SDS011;31429;42.674;23.350;2023-07-30T05:06:51;5.00;;;4.50;;
23163;SDS011;31429;42.674;23.350;2023-07-30T05:07:51;5.23;;;4.73;;
23163;SDS011;31429;42.674;23.350;2023-07-30T05:08:52;5.37;;;4.53;;
23163;SDS011;31429;42.674;23.350;2023-07-30T05:09:53;4.77;;;4.27;;
23163;SDS011;31429;42.674;23.350;2023-07-30T05:10:55;4.77;;;4.33;;
23163;SDS011;31429;42.674;23.350;2023-07-30T05:11:55;4.90;;;4.50;;
23163;SDS011;31429;42.674;23.350;2023-07-30T05:12:56;19.93;;;15.33;;
23163;SDS011;31429;42.674;23.350;2023-07-30T05:13:57;8.10;;;7.10;;
23163;SDS011;31429;42.674;23.350;2023-07-30T05:14:57;13.57;;;11.50;;
23163;SDS011;31429;42.674;23.350;2023-07-30T05:15:58;11.90;;;9.67;;
23163;SDS011;31429;42.674;23.350;2023-07-30T05:16:59;96.20;;;83.33;;
23163;SDS011;31429;42.674;23.350;2023-07-30T05:17:59;34.93;;;30.53;;
23163;SDS011;31429;42.674;23.350;2023-07-30T05:19:00;81.73;;;69.50;;
23163;SDS011;31429;42.674;23.350;2023-07-30T05:20:01;47.33;;;42.17;;
23163;SDS011;31429;42.674;23.350;2023-07-30T05:21:02;12.50;;;10.50;;
23163;SDS011;31429;42.674;23.350;2023-07-30T05:22:03;23.30;;;19.40;;
23163;SDS011;31429;42.674;23.350;2023-07-30T05:23:05;47.60;;;41.00;;
23163;SDS011;31429;42.674;23.350;2023-07-30T05:24:09;35.50;;;29.67;;
23163;SDS011;31429;42.674;23.350;2023-07-30T05:25:09;62.20;;;48.77;;
23163;SDS011;31429;42.674;23.350;2023-07-30T05:26:11;25.97;;;17.93;;
23163;SDS011;31429;42.674;23.350;2023-07-30T05:27:12;49.93;;;36.87;;
23163;SDS011;31429;42.674;23.350;2023-07-30T05:28:13;21.60;;;15.57;;
23163;SDS011;31429;42.674;23.350;2023-07-30T05:29:14;12.60;;;8.13;;
23163;SDS011;31429;42.674;23.350;2023-07-30T05:30:14;7.30;;;6.63;;
23163;SDS011;31429;42.674;23.350;2023-07-30T05:31:15;17.83;;;13.67;;
23163;SDS011;31429;42.674;23.350;2023-07-30T05:32:16;10.10;;;8.97;;
23163;SDS011;31429;42.674;23.350;2023-07-30T05:33:16;9.67;;;6.97;;
23163;SDS011;31429;42.674;23.350;2023-07-30T05:34:17;7.23;;;6.03;;
23163;SDS011;31429;42.674;23.350;2023-07-30T05:35:18;5.70;;;4.40;;
23163;SDS011;31429;42.674;23.350;2023-07-30T05:36:18;8.80;;;7.43;;
23163;SDS011;31429;42.674;23.350;2023-07-30T05:37:19;8.07;;;6.57;;
23163;SDS011;31429;42.674;23.350;2023-07-30T05:38:20;15.57;;;12.77;;
23163;SDS011;31429;42.674;23.350;2023-07-30T05:39:20;15.37;;;10.73;;
23163;SDS011;31429;42.674;23.350;2023-07-30T05:40:21;9.67;;;8.10;;
23163;SDS011;31429;42.674;23.350;2023-07-30T05:41:24;13.33;;;9.73;;
23163;SDS011;31429;42.674;23.350;2023-07-30T05:42:25;8.57;;;7.77;;
23163;SDS011;31429;42.674;23.350;2023-07-30T05:43:25;7.50;;;5.87;;
23163;SDS011;31429;42.674;23.350;2023-07-30T05:44:26;12.20;;;8.83;;
23163;SDS011;31429;42.674;23.350;2023-07-30T05:45:26;12.70;;;10.37;;
23163;SDS011;31429;42.674;23.350;2023-07-30T05:46:27;8.30;;;6.50;;
23163;SDS011;31429;42.674;23.350;2023-07-30T05:47:28;14.27;;;7.60;;
23163;SDS011;31429;42.674;23.350;2023-07-30T05:48:28;13.67;;;11.37;;
23163;SDS011;31429;42.674;23.350;2023-07-30T05:49:29;7.77;;;6.50;;
23163;SDS011;31429;42.674;23.350;2023-07-30T05:50:30;7.77;;;6.40;;
23163;SDS011;31429;42.674;23.350;2023-07-30T05:51:30;16.90;;;9.77;;
23163;SDS011;31429;42.674;23.350;2023-07-30T05:52:31;11.80;;;9.40;;
23163;SDS011;31429;42.674;23.350;2023-07-30T05:53:32;9.13;;;8.23;;
23163;SDS011;31429;42.674;23.350;2023-07-30T05:54:32;6.83;;;5.60;;
23163;SDS011;31429;42.674;23.350;2023-07-30T05:55:33;7.72;;;5.53;;
23163;SDS011;31429;42.674;23.350;2023-07-30T05:56:35;10.43;;;5.80;;
23163;SDS011;31429;42.674;23.350;2023-07-30T05:57:36;6.60;;;5.23;;
23163;SDS011;31429;42.674;23.350;2023-07-30T05:58:36;6.53;;;5.30;;
23163;SDS011;31429;42.674;23.350;2023-07-30T05:59:37;8.93;;;5.63;;
23163;SDS011;31429;42.674;23.350;2023-07-30T06:00:38;8.85;;;5.93;;